Batang, China
Current Conditions -  °F | °C
As of 12:00 PM on Thursday 29 Jan 2015 (Local Time) from ZUUU Reporting Station
Scattered Clouds Scattered Clouds  
Wind Chill: 43°   Ceiling: Unl
Heat Index: 43°   Visibility: 5mi
Dew Point: 34°   Wind: 2mph
Humidity: 70%   Direction: NA
Pressure: 30.33"   Gusts: NA
Location:  30°N, 99.1°E
Report Text: ZUUU 290400Z VRB01MPS 8000 SCT050 06/01 Q1027 NOSIG
Loading
Personal Weather Stations






























Interactive Weather Map New forecast layout! Learn more

10-Day Weather Forecast

Advertisements
Track Severe Weather on mobile